sensor_id;sensor_type;location;lat;lon;timestamp;P1;durP1;ratioP1;P2;durP2;ratioP2
39400;SDS011;54391;50.000;7.360;2022-08-19T00:01:24;19.38;;;15.07;;
39400;SDS011;54391;50.000;7.360;2022-08-19T00:03:54;19.58;;;15.18;;
39400;SDS011;54391;50.000;7.360;2022-08-19T00:06:22;24.95;;;15.52;;
39400;SDS011;54391;50.000;7.360;2022-08-19T00:08:50;19.45;;;14.23;;
39400;SDS011;54391;50.000;7.360;2022-08-19T00:11:18;21.00;;;15.10;;
39400;SDS011;54391;50.000;7.360;2022-08-19T00:13:46;21.55;;;14.77;;
39400;SDS011;54391;50.000;7.360;2022-08-19T00:16:15;18.67;;;13.77;;
39400;SDS011;54391;50.000;7.360;2022-08-19T00:18:42;19.02;;;14.30;;
39400;SDS011;54391;50.000;7.360;2022-08-19T00:21:09;16.17;;;12.55;;
39400;SDS011;54391;50.000;7.360;2022-08-19T00:23:37;19.83;;;14.50;;
39400;SDS011;54391;50.000;7.360;2022-08-19T00:26:06;18.75;;;13.77;;
39400;SDS011;54391;50.000;7.360;2022-08-19T00:28:34;19.33;;;14.10;;
39400;SDS011;54391;50.000;7.360;2022-08-19T00:31:02;18.38;;;14.65;;
39400;SDS011;54391;50.000;7.360;2022-08-19T00:33:31;22.48;;;15.25;;
39400;SDS011;54391;50.000;7.360;2022-08-19T00:35:59;20.15;;;14.65;;
39400;SDS011;54391;50.000;7.360;2022-08-19T00:38:29;15.75;;;13.00;;
39400;SDS011;54391;50.000;7.360;2022-08-19T00:40:57;16.70;;;12.60;;
39400;SDS011;54391;50.000;7.360;2022-08-19T00:43:26;19.83;;;13.63;;
39400;SDS011;54391;50.000;7.360;2022-08-19T00:45:54;18.73;;;13.73;;
39400;SDS011;54391;50.000;7.360;2022-08-19T00:48:22;16.67;;;12.52;;
39400;SDS011;54391;50.000;7.360;2022-08-19T00:50:50;17.77;;;13.68;;
39400;SDS011;54391;50.000;7.360;2022-08-19T00:53:22;16.58;;;12.40;;
39400;SDS011;54391;50.000;7.360;2022-08-19T00:55:53;19.55;;;13.13;;
39400;SDS011;54391;50.000;7.360;2022-08-19T00:58:24;17.33;;;13.25;;
39400;SDS011;54391;50.000;7.360;2022-08-19T01:00:56;18.58;;;13.50;;
39400;SDS011;54391;50.000;7.360;2022-08-19T01:03:23;18.80;;;13.45;;
39400;SDS011;54391;50.000;7.360;2022-08-19T01:05:51;17.48;;;12.73;;
39400;SDS011;54391;50.000;7.360;2022-08-19T01:08:20;21.05;;;13.85;;
39400;SDS011;54391;50.000;7.360;2022-08-19T01:10:50;17.75;;;13.93;;
39400;SDS011;54391;50.000;7.360;2022-08-19T01:13:21;16.25;;;13.23;;
39400;SDS011;54391;50.000;7.360;2022-08-19T01:15:55;18.48;;;14.25;;
39400;SDS011;54391;50.000;7.360;2022-08-19T01:18:25;17.08;;;13.00;;
39400;SDS011;54391;50.000;7.360;2022-08-19T01:20:54;20.25;;;13.13;;
39400;SDS011;54391;50.000;7.360;2022-08-19T01:23:28;19.63;;;14.13;;
39400;SDS011;54391;50.000;7.360;2022-08-19T01:26:09;18.70;;;13.20;;
39400;SDS011;54391;50.000;7.360;2022-08-19T01:28:37;16.27;;;12.65;;
39400;SDS011;54391;50.000;7.360;2022-08-19T01:31:05;18.00;;;12.63;;
39400;SDS011;54391;50.000;7.360;2022-08-19T01:33:35;19.63;;;12.77;;
39400;SDS011;54391;50.000;7.360;2022-08-19T01:36:03;20.48;;;13.30;;
39400;SDS011;54391;50.000;7.360;2022-08-19T01:38:35;18.80;;;13.13;;
39400;SDS011;54391;50.000;7.360;2022-08-19T01:41:04;19.55;;;13.73;;
39400;SDS011;54391;50.000;7.360;2022-08-19T01:43:32;17.73;;;13.15;;
39400;SDS011;54391;50.000;7.360;2022-08-19T01:45:59;17.88;;;12.75;;
39400;SDS011;54391;50.000;7.360;2022-08-19T01:48:32;18.35;;;12.80;;
39400;SDS011;54391;50.000;7.360;2022-08-19T01:51:01;16.70;;;12.20;;
39400;SDS011;54391;50.000;7.360;2022-08-19T01:53:28;21.75;;;13.65;;
39400;SDS011;54391;50.000;7.360;2022-08-19T01:55:57;16.50;;;13.32;;
39400;SDS011;54391;50.000;7.360;2022-08-19T01:58:28;16.95;;;13.27;;
39400;SDS011;54391;50.000;7.360;2022-08-19T02:01:01;16.60;;;12.15;;
39400;SDS011;54391;50.000;7.360;2022-08-19T02:03:29;17.52;;;12.63;;
39400;SDS011;54391;50.000;7.360;2022-08-19T02:05:57;19.88;;;12.90;;
39400;SDS011;54391;50.000;7.360;2022-08-19T02:08:27;15.25;;;11.73;;
39400;SDS011;54391;50.000;7.360;2022-08-19T02:10:54;16.35;;;12.18;;
39400;SDS011;54391;50.000;7.360;2022-08-19T02:13:24;15.20;;;11.85;;
39400;SDS011;54391;50.000;7.360;2022-08-19T02:15:52;18.45;;;12.65;;
39400;SDS011;54391;50.000;7.360;2022-08-19T02:18:20;16.60;;;11.63;;
39400;SDS011;54391;50.000;7.360;2022-08-19T02:20:47;17.52;;;12.68;;
39400;SDS011;54391;50.000;7.360;2022-08-19T02:23:15;18.25;;;13.07;;
39400;SDS011;54391;50.000;7.360;2022-08-19T02:25:44;16.58;;;13.07;;
39400;SDS011;54391;50.000;7.360;2022-08-19T02:28:13;16.85;;;12.43;;
39400;SDS011;54391;50.000;7.360;2022-08-19T02:30:42;17.15;;;12.30;;
39400;SDS011;54391;50.000;7.360;2022-08-19T02:33:10;18.70;;;12.43;;
39400;SDS011;54391;50.000;7.360;2022-08-19T02:35:40;17.23;;;12.93;;
39400;SDS011;54391;50.000;7.360;2022-08-19T02:38:08;15.10;;;11.40;;
39400;SDS011;54391;50.000;7.360;2022-08-19T02:40:54;17.13;;;12.55;;
39400;SDS011;54391;50.000;7.360;2022-08-19T02:43:23;17.13;;;12.10;;
39400;SDS011;54391;50.000;7.360;2022-08-19T02:45:52;15.45;;;11.82;;
39400;SDS011;54391;50.000;7.360;2022-08-19T02:48:20;15.98;;;12.40;;
39400;SDS011;54391;50.000;7.360;2022-08-19T02:50:50;16.02;;;11.20;;
39400;SDS011;54391;50.000;7.360;2022-08-19T02:53:21;16.08;;;11.88;;
39400;SDS011;54391;50.000;7.360;2022-08-19T02:55:49;14.65;;;10.65;;
39400;SDS011;54391;50.000;7.360;2022-08-19T02:58:17;18.40;;;12.10;;
39400;SDS011;54391;50.000;7.360;2022-08-19T03:00:47;14.77;;;10.50;;
39400;SDS011;54391;50.000;7.360;2022-08-19T03:03:17;13.75;;;10.93;;
39400;SDS011;54391;50.000;7.360;2022-08-19T03:05:46;14.85;;;10.70;;
39400;SDS011;54391;50.000;7.360;2022-08-19T03:08:14;15.45;;;11.43;;
39400;SDS011;54391;50.000;7.360;2022-08-19T03:10:42;15.00;;;10.85;;
39400;SDS011;54391;50.000;7.360;2022-08-19T03:13:12;15.63;;;11.00;;
39400;SDS011;54391;50.000;7.360;2022-08-19T03:15:40;14.50;;;11.10;;
39400;SDS011;54391;50.000;7.360;2022-08-19T03:18:09;15.38;;;11.10;;
39400;SDS011;54391;50.000;7.360;2022-08-19T03:20:42;18.58;;;10.82;;
39400;SDS011;54391;50.000;7.360;2022-08-19T03:23:10;14.90;;;11.10;;
39400;SDS011;54391;50.000;7.360;2022-08-19T03:25:39;15.73;;;11.77;;
39400;SDS011;54391;50.000;7.360;2022-08-19T03:28:08;14.27;;;10.80;;
39400;SDS011;54391;50.000;7.360;2022-08-19T03:30:37;14.88;;;11.43;;
39400;SDS011;54391;50.000;7.360;2022-08-19T03:33:06;14.60;;;11.07;;
39400;SDS011;54391;50.000;7.360;2022-08-19T03:35:33;15.60;;;11.68;;
39400;SDS011;54391;50.000;7.360;2022-08-19T03:38:03;14.93;;;11.80;;
39400;SDS011;54391;50.000;7.360;2022-08-19T03:40:31;18.25;;;11.35;;
39400;SDS011;54391;50.000;7.360;2022-08-19T03:43:00;15.32;;;11.88;;
39400;SDS011;54391;50.000;7.360;2022-08-19T03:45:27;16.90;;;11.52;;
39400;SDS011;54391;50.000;7.360;2022-08-19T03:47:55;14.93;;;10.98;;
39400;SDS011;54391;50.000;7.360;2022-08-19T03:50:23;17.55;;;12.40;;
39400;SDS011;54391;50.000;7.360;2022-08-19T03:52:50;17.20;;;10.88;;
39400;SDS011;54391;50.000;7.360;2022-08-19T03:55:19;17.38;;;11.55;;
39400;SDS011;54391;50.000;7.360;2022-08-19T03:57:47;17.95;;;12.75;;
39400;SDS011;54391;50.000;7.360;2022-08-19T04:00:15;22.08;;;13.68;;
39400;SDS011;54391;50.000;7.360;2022-08-19T04:02:43;19.33;;;12.20;;
39400;SDS011;54391;50.000;7.360;2022-08-19T04:05:10;17.73;;;12.43;;
39400;SDS011;54391;50.000;7.360;2022-08-19T04:07:39;22.30;;;13.00;;
39400;SDS011;54391;50.000;7.360;2022-08-19T04:10:07;16.65;;;12.25;;
39400;SDS011;54391;50.000;7.360;2022-08-19T04:12:36;17.38;;;11.88;;
39400;SDS011;54391;50.000;7.360;2022-08-19T04:15:04;16.80;;;11.45;;
39400;SDS011;54391;50.000;7.360;2022-08-19T04:17:33;15.65;;;12.15;;
39400;SDS011;54391;50.000;7.360;2022-08-19T04:20:01;17.25;;;11.75;;
39400;SDS011;54391;50.000;7.360;2022-08-19T04:22:29;19.15;;;13.00;;
39400;SDS011;54391;50.000;7.360;2022-08-19T04:24:56;18.40;;;13.48;;
39400;SDS011;54391;50.000;7.360;2022-08-19T04:27:23;21.25;;;14.68;;
39400;SDS011;54391;50.000;7.360;2022-08-19T04:29:53;18.02;;;12.93;;
39400;SDS011;54391;50.000;7.360;2022-08-19T04:32:20;20.70;;;13.80;;
39400;SDS011;54391;50.000;7.360;2022-08-19T04:34:48;23.77;;;13.57;;
39400;SDS011;54391;50.000;7.360;2022-08-19T04:37:15;19.95;;;13.60;;
39400;SDS011;54391;50.000;7.360;2022-08-19T04:39:42;21.25;;;13.77;;
39400;SDS011;54391;50.000;7.360;2022-08-19T04:42:28;19.63;;;12.73;;
39400;SDS011;54391;50.000;7.360;2022-08-19T04:45:07;18.98;;;14.13;;
39400;SDS011;54391;50.000;7.360;2022-08-19T04:47:36;20.75;;;13.82;;
39400;SDS011;54391;50.000;7.360;2022-08-19T04:50:05;23.63;;;13.05;;
39400;SDS011;54391;50.000;7.360;2022-08-19T04:52:33;21.88;;;14.45;;
39400;SDS011;54391;50.000;7.360;2022-08-19T04:55:00;19.73;;;13.95;;
39400;SDS011;54391;50.000;7.360;2022-08-19T04:57:28;20.88;;;14.35;;
39400;SDS011;54391;50.000;7.360;2022-08-19T04:59:56;24.15;;;14.93;;
39400;SDS011;54391;50.000;7.360;2022-08-19T05:02:25;21.00;;;15.05;;
39400;SDS011;54391;50.000;7.360;2022-08-19T05:04:56;22.58;;;14.82;;
39400;SDS011;54391;50.000;7.360;2022-08-19T05:07:28;23.13;;;13.77;;
39400;SDS011;54391;50.000;7.360;2022-08-19T05:09:56;23.20;;;15.20;;
39400;SDS011;54391;50.000;7.360;2022-08-19T05:12:23;20.95;;;13.95;;
39400;SDS011;54391;50.000;7.360;2022-08-19T05:14:50;18.70;;;12.80;;
39400;SDS011;54391;50.000;7.360;2022-08-19T05:17:18;21.35;;;13.77;;
39400;SDS011;54391;50.000;7.360;2022-08-19T05:19:46;21.52;;;14.15;;
39400;SDS011;54391;50.000;7.360;2022-08-19T05:22:31;20.27;;;13.95;;
39400;SDS011;54391;50.000;7.360;2022-08-19T05:25:02;22.63;;;14.35;;
39400;SDS011;54391;50.000;7.360;2022-08-19T05:27:33;17.30;;;13.30;;
39400;SDS011;54391;50.000;7.360;2022-08-19T05:30:01;19.88;;;12.85;;
39400;SDS011;54391;50.000;7.360;2022-08-19T05:32:29;18.10;;;13.18;;
39400;SDS011;54391;50.000;7.360;2022-08-19T05:34:58;18.33;;;13.32;;
39400;SDS011;54391;50.000;7.360;2022-08-19T05:37:27;20.55;;;13.38;;
39400;SDS011;54391;50.000;7.360;2022-08-19T05:39:54;21.95;;;14.13;;
39400;SDS011;54391;50.000;7.360;2022-08-19T05:42:22;18.25;;;12.75;;
39400;SDS011;54391;50.000;7.360;2022-08-19T05:44:50;17.83;;;13.40;;
39400;SDS011;54391;50.000;7.360;2022-08-19T05:47:18;20.08;;;14.00;;
39400;SDS011;54391;50.000;7.360;2022-08-19T05:49:46;18.33;;;12.60;;
39400;SDS011;54391;50.000;7.360;2022-08-19T05:52:16;18.42;;;13.57;;
39400;SDS011;54391;50.000;7.360;2022-08-19T05:54:44;18.20;;;12.20;;
39400;SDS011;54391;50.000;7.360;2022-08-19T05:57:13;18.55;;;12.02;;
39400;SDS011;54391;50.000;7.360;2022-08-19T05:59:41;18.83;;;13.75;;
39400;SDS011;54391;50.000;7.360;2022-08-19T06:02:11;18.17;;;12.98;;
39400;SDS011;54391;50.000;7.360;2022-08-19T06:04:38;17.20;;;12.85;;
39400;SDS011;54391;50.000;7.360;2022-08-19T06:07:08;17.30;;;12.88;;
39400;SDS011;54391;50.000;7.360;2022-08-19T06:09:37;17.55;;;12.32;;
39400;SDS011;54391;50.000;7.360;2022-08-19T06:12:04;20.63;;;12.50;;
39400;SDS011;54391;50.000;7.360;2022-08-19T06:14:33;18.70;;;12.70;;
39400;SDS011;54391;50.000;7.360;2022-08-19T06:17:03;16.60;;;12.90;;
39400;SDS011;54391;50.000;7.360;2022-08-19T06:19:30;16.70;;;12.75;;
39400;SDS011;54391;50.000;7.360;2022-08-19T06:21:58;17.10;;;12.48;;
39400;SDS011;54391;50.000;7.360;2022-08-19T06:24:28;17.00;;;13.35;;
39400;SDS011;54391;50.000;7.360;2022-08-19T06:26:59;18.02;;;12.73;;
39400;SDS011;54391;50.000;7.360;2022-08-19T06:29:28;17.10;;;12.15;;
39400;SDS011;54391;50.000;7.360;2022-08-19T06:31:57;20.63;;;12.27;;
39400;SDS011;54391;50.000;7.360;2022-08-19T06:34:28;17.15;;;11.80;;
39400;SDS011;54391;50.000;7.360;2022-08-19T06:36:57;18.70;;;12.45;;
39400;SDS011;54391;50.000;7.360;2022-08-19T06:39:29;18.90;;;13.38;;
39400;SDS011;54391;50.000;7.360;2022-08-19T06:42:03;17.92;;;12.88;;
39400;SDS011;54391;50.000;7.360;2022-08-19T06:44:35;17.60;;;12.05;;
39400;SDS011;54391;50.000;7.360;2022-08-19T06:47:03;22.67;;;13.40;;
39400;SDS011;54391;50.000;7.360;2022-08-19T06:49:32;17.88;;;13.02;;
39400;SDS011;54391;50.000;7.360;2022-08-19T06:51:59;18.30;;;13.68;;
39400;SDS011;54391;50.000;7.360;2022-08-19T06:54:27;18.58;;;12.45;;
39400;SDS011;54391;50.000;7.360;2022-08-19T06:56:55;19.50;;;12.80;;
39400;SDS011;54391;50.000;7.360;2022-08-19T06:59:24;16.27;;;12.18;;
39400;SDS011;54391;50.000;7.360;2022-08-19T07:01:54;17.00;;;12.77;;
39400;SDS011;54391;50.000;7.360;2022-08-19T07:04:24;20.38;;;13.18;;
39400;SDS011;54391;50.000;7.360;2022-08-19T07:06:56;16.85;;;12.27;;
39400;SDS011;54391;50.000;7.360;2022-08-19T07:09:25;16.52;;;11.32;;
39400;SDS011;54391;50.000;7.360;2022-08-19T07:11:53;17.60;;;12.27;;
39400;SDS011;54391;50.000;7.360;2022-08-19T07:14:26;15.27;;;11.65;;
39400;SDS011;54391;50.000;7.360;2022-08-19T07:16:56;15.13;;;11.63;;
39400;SDS011;54391;50.000;7.360;2022-08-19T07:19:24;18.88;;;12.00;;
39400;SDS011;54391;50.000;7.360;2022-08-19T07:21:53;21.85;;;12.27;;
39400;SDS011;54391;50.000;7.360;2022-08-19T07:24:21;16.40;;;11.35;;
39400;SDS011;54391;50.000;7.360;2022-08-19T07:26:50;14.82;;;11.20;;
39400;SDS011;54391;50.000;7.360;2022-08-19T07:29:19;16.80;;;11.55;;
39400;SDS011;54391;50.000;7.360;2022-08-19T07:31:50;15.82;;;10.65;;
39400;SDS011;54391;50.000;7.360;2022-08-19T07:34:18;19.85;;;11.23;;
39400;SDS011;54391;50.000;7.360;2022-08-19T07:36:45;34.00;;;20.40;;
39400;SDS011;54391;50.000;7.360;2022-08-19T07:39:14;16.95;;;12.82;;
39400;SDS011;54391;50.000;7.360;2022-08-19T07:41:42;21.65;;;15.35;;
39400;SDS011;54391;50.000;7.360;2022-08-19T07:44:11;21.50;;;15.75;;
39400;SDS011;54391;50.000;7.360;2022-08-19T07:46:39;23.13;;;17.58;;
39400;SDS011;54391;50.000;7.360;2022-08-19T07:49:11;22.08;;;15.35;;
39400;SDS011;54391;50.000;7.360;2022-08-19T07:51:43;21.63;;;15.65;;
39400;SDS011;54391;50.000;7.360;2022-08-19T07:54:10;32.63;;;16.05;;
39400;SDS011;54391;50.000;7.360;2022-08-19T07:56:38;22.63;;;14.05;;
39400;SDS011;54391;50.000;7.360;2022-08-19T07:59:05;20.98;;;13.25;;
39400;SDS011;54391;50.000;7.360;2022-08-19T08:01:34;21.60;;;14.57;;
39400;SDS011;54391;50.000;7.360;2022-08-19T08:04:02;22.80;;;15.10;;
39400;SDS011;54391;50.000;7.360;2022-08-19T08:06:48;20.67;;;14.88;;
39400;SDS011;54391;50.000;7.360;2022-08-19T08:09:34;20.85;;;14.07;;
39400;SDS011;54391;50.000;7.360;2022-08-19T08:12:04;19.83;;;15.00;;
39400;SDS011;54391;50.000;7.360;2022-08-19T08:14:33;20.60;;;14.25;;
39400;SDS011;54391;50.000;7.360;2022-08-19T08:17:03;21.23;;;15.40;;
39400;SDS011;54391;50.000;7.360;2022-08-19T08:19:32;21.25;;;15.35;;
39400;SDS011;54391;50.000;7.360;2022-08-19T08:22:02;18.55;;;14.05;;
39400;SDS011;54391;50.000;7.360;2022-08-19T08:24:31;21.25;;;14.00;;
39400;SDS011;54391;50.000;7.360;2022-08-19T08:26:59;20.75;;;14.70;;
39400;SDS011;54391;50.000;7.360;2022-08-19T08:29:28;20.88;;;14.32;;
39400;SDS011;54391;50.000;7.360;2022-08-19T08:31:57;19.30;;;13.10;;
39400;SDS011;54391;50.000;7.360;2022-08-19T08:34:24;17.70;;;12.90;;
39400;SDS011;54391;50.000;7.360;2022-08-19T08:36:51;19.98;;;14.05;;
39400;SDS011;54391;50.000;7.360;2022-08-19T08:39:20;16.42;;;13.73;;
39400;SDS011;54391;50.000;7.360;2022-08-19T08:41:50;17.30;;;12.73;;
39400;SDS011;54391;50.000;7.360;2022-08-19T08:44:21;15.63;;;11.88;;
39400;SDS011;54391;50.000;7.360;2022-08-19T08:46:55;16.08;;;12.38;;
39400;SDS011;54391;50.000;7.360;2022-08-19T08:49:29;20.52;;;12.15;;
39400;SDS011;54391;50.000;7.360;2022-08-19T08:52:21;15.00;;;11.52;;
39400;SDS011;54391;50.000;7.360;2022-08-19T08:54:54;13.60;;;10.90;;
39400;SDS011;54391;50.000;7.360;2022-08-19T08:57:25;15.07;;;12.13;;
39400;SDS011;54391;50.000;7.360;2022-08-19T08:59:56;16.13;;;12.57;;
39400;SDS011;54391;50.000;7.360;2022-08-19T09:02:27;13.13;;;9.70;;
39400;SDS011;54391;50.000;7.360;2022-08-19T09:04:54;13.52;;;10.50;;
39400;SDS011;54391;50.000;7.360;2022-08-19T09:07:25;14.45;;;10.18;;
39400;SDS011;54391;50.000;7.360;2022-08-19T09:10:07;12.85;;;9.80;;
39400;SDS011;54391;50.000;7.360;2022-08-19T09:12:45;12.18;;;9.88;;
39400;SDS011;54391;50.000;7.360;2022-08-19T09:15:22;12.30;;;9.48;;
39400;SDS011;54391;50.000;7.360;2022-08-19T09:18:00;11.07;;;9.18;;
39400;SDS011;54391;50.000;7.360;2022-08-19T09:20:29;12.57;;;9.23;;
39400;SDS011;54391;50.000;7.360;2022-08-19T09:22:57;15.10;;;11.10;;
39400;SDS011;54391;50.000;7.360;2022-08-19T09:25:26;12.05;;;10.02;;
39400;SDS011;54391;50.000;7.360;2022-08-19T09:27:54;10.85;;;8.95;;
39400;SDS011;54391;50.000;7.360;2022-08-19T09:30:23;11.80;;;8.25;;
39400;SDS011;54391;50.000;7.360;2022-08-19T09:32:52;11.50;;;9.18;;
39400;SDS011;54391;50.000;7.360;2022-08-19T09:35:20;10.95;;;7.97;;
39400;SDS011;54391;50.000;7.360;2022-08-19T09:37:49;11.50;;;7.63;;
39400;SDS011;54391;50.000;7.360;2022-08-19T09:40:17;8.43;;;6.57;;
39400;SDS011;54391;50.000;7.360;2022-08-19T09:42:46;8.07;;;7.22;;
39400;SDS011;54391;50.000;7.360;2022-08-19T09:45:14;11.20;;;6.93;;
39400;SDS011;54391;50.000;7.360;2022-08-19T09:47:42;10.20;;;7.68;;
39400;SDS011;54391;50.000;7.360;2022-08-19T09:50:10;18.08;;;7.70;;
39400;SDS011;54391;50.000;7.360;2022-08-19T09:52:39;10.07;;;7.07;;
39400;SDS011;54391;50.000;7.360;2022-08-19T09:55:08;8.45;;;6.55;;
39400;SDS011;54391;50.000;7.360;2022-08-19T09:57:36;10.35;;;7.28;;
39400;SDS011;54391;50.000;7.360;2022-08-19T10:00:07;10.43;;;6.97;;
39400;SDS011;54391;50.000;7.360;2022-08-19T10:02:36;11.10;;;7.88;;
39400;SDS011;54391;50.000;7.360;2022-08-19T10:05:04;8.35;;;6.25;;
39400;SDS011;54391;50.000;7.360;2022-08-19T10:07:48;9.00;;;7.22;;
39400;SDS011;54391;50.000;7.360;2022-08-19T10:10:17;7.85;;;7.05;;
39400;SDS011;54391;50.000;7.360;2022-08-19T10:12:44;9.57;;;7.32;;
39400;SDS011;54391;50.000;7.360;2022-08-19T10:15:13;8.77;;;6.78;;
39400;SDS011;54391;50.000;7.360;2022-08-19T10:17:41;11.93;;;8.40;;
39400;SDS011;54391;50.000;7.360;2022-08-19T10:20:09;8.30;;;7.32;;
39400;SDS011;54391;50.000;7.360;2022-08-19T10:22:37;9.30;;;7.13;;
39400;SDS011;54391;50.000;7.360;2022-08-19T10:25:05;9.23;;;7.25;;
39400;SDS011;54391;50.000;7.360;2022-08-19T10:27:33;8.32;;;5.22;;
39400;SDS011;54391;50.000;7.360;2022-08-19T10:30:02;7.63;;;5.57;;
39400;SDS011;54391;50.000;7.360;2022-08-19T10:32:32;10.90;;;6.25;;
39400;SDS011;54391;50.000;7.360;2022-08-19T10:34:59;10.80;;;6.00;;
39400;SDS011;54391;50.000;7.360;2022-08-19T10:37:27;10.75;;;7.80;;
39400;SDS011;54391;50.000;7.360;2022-08-19T10:39:56;7.90;;;6.53;;
39400;SDS011;54391;50.000;7.360;2022-08-19T10:42:23;8.38;;;6.15;;
39400;SDS011;54391;50.000;7.360;2022-08-19T10:44:50;9.15;;;6.38;;
39400;SDS011;54391;50.000;7.360;2022-08-19T10:47:18;6.70;;;6.00;;
39400;SDS011;54391;50.000;7.360;2022-08-19T10:49:49;6.68;;;5.35;;
39400;SDS011;54391;50.000;7.360;2022-08-19T10:52:34;6.55;;;5.85;;
39400;SDS011;54391;50.000;7.360;2022-08-19T10:55:03;6.93;;;5.50;;
39400;SDS011;54391;50.000;7.360;2022-08-19T10:57:49;7.07;;;5.82;;
39400;SDS011;54391;50.000;7.360;2022-08-19T11:00:18;8.25;;;6.07;;
39400;SDS011;54391;50.000;7.360;2022-08-19T11:02:46;7.10;;;5.57;;
39400;SDS011;54391;50.000;7.360;2022-08-19T11:05:15;7.70;;;5.80;;
39400;SDS011;54391;50.000;7.360;2022-08-19T11:07:44;8.07;;;5.55;;
39400;SDS011;54391;50.000;7.360;2022-08-19T11:10:12;11.85;;;6.18;;
39400;SDS011;54391;50.000;7.360;2022-08-19T11:12:44;5.65;;;5.00;;
39400;SDS011;54391;50.000;7.360;2022-08-19T11:15:13;9.13;;;6.05;;
39400;SDS011;54391;50.000;7.360;2022-08-19T11:17:40;7.50;;;5.45;;
39400;SDS011;54391;50.000;7.360;2022-08-19T11:20:09;10.07;;;6.18;;
39400;SDS011;54391;50.000;7.360;2022-08-19T11:22:39;8.90;;;5.65;;
39400;SDS011;54391;50.000;7.360;2022-08-19T11:25:08;5.68;;;4.85;;
39400;SDS011;54391;50.000;7.360;2022-08-19T11:27:37;6.32;;;5.38;;
39400;SDS011;54391;50.000;7.360;2022-08-19T11:30:07;6.57;;;5.45;;
39400;SDS011;54391;50.000;7.360;2022-08-19T11:32:36;6.70;;;5.72;;
39400;SDS011;54391;50.000;7.360;2022-08-19T11:35:03;7.07;;;4.88;;
39400;SDS011;54391;50.000;7.360;2022-08-19T11:37:31;8.45;;;4.88;;
39400;SDS011;54391;50.000;7.360;2022-08-19T11:40:05;6.82;;;5.22;;
39400;SDS011;54391;50.000;7.360;2022-08-19T11:42:33;10.32;;;5.68;;
39400;SDS011;54391;50.000;7.360;2022-08-19T11:45:18;9.30;;;5.40;;
39400;SDS011;54391;50.000;7.360;2022-08-19T11:47:46;6.43;;;5.22;;
39400;SDS011;54391;50.000;7.360;2022-08-19T11:50:13;8.35;;;5.75;;
39400;SDS011;54391;50.000;7.360;2022-08-19T11:52:41;7.25;;;5.78;;
39400;SDS011;54391;50.000;7.360;2022-08-19T11:55:11;7.13;;;5.85;;
39400;SDS011;54391;50.000;7.360;2022-08-19T11:57:39;9.30;;;5.97;;
39400;SDS011;54391;50.000;7.360;2022-08-19T12:00:09;7.30;;;5.40;;
39400;SDS011;54391;50.000;7.360;2022-08-19T12:02:38;7.30;;;5.38;;
39400;SDS011;54391;50.000;7.360;2022-08-19T12:05:06;6.63;;;5.72;;
39400;SDS011;54391;50.000;7.360;2022-08-19T12:07:33;6.05;;;5.32;;
39400;SDS011;54391;50.000;7.360;2022-08-19T12:10:01;6.65;;;5.63;;
39400;SDS011;54391;50.000;7.360;2022-08-19T12:12:30;6.80;;;5.97;;
39400;SDS011;54391;50.000;7.360;2022-08-19T12:14:58;8.43;;;6.30;;
39400;SDS011;54391;50.000;7.360;2022-08-19T12:17:27;8.10;;;6.75;;
39400;SDS011;54391;50.000;7.360;2022-08-19T12:19:56;9.50;;;5.90;;
39400;SDS011;54391;50.000;7.360;2022-08-19T12:22:23;8.20;;;5.93;;
39400;SDS011;54391;50.000;7.360;2022-08-19T12:24:50;11.93;;;6.50;;
39400;SDS011;54391;50.000;7.360;2022-08-19T12:27:19;9.40;;;6.85;;
39400;SDS011;54391;50.000;7.360;2022-08-19T12:29:47;10.75;;;7.78;;
39400;SDS011;54391;50.000;7.360;2022-08-19T12:32:15;10.25;;;6.97;;
39400;SDS011;54391;50.000;7.360;2022-08-19T12:34:42;8.90;;;7.57;;
39400;SDS011;54391;50.000;7.360;2022-08-19T12:37:09;8.82;;;7.15;;
39400;SDS011;54391;50.000;7.360;2022-08-19T12:39:38;8.63;;;6.47;;
39400;SDS011;54391;50.000;7.360;2022-08-19T12:42:07;7.78;;;6.97;;
39400;SDS011;54391;50.000;7.360;2022-08-19T12:44:43;11.95;;;7.30;;
39400;SDS011;54391;50.000;7.360;2022-08-19T12:47:22;9.80;;;7.60;;
39400;SDS011;54391;50.000;7.360;2022-08-19T12:49:51;8.65;;;6.72;;
39400;SDS011;54391;50.000;7.360;2022-08-19T12:52:19;9.55;;;6.20;;
39400;SDS011;54391;50.000;7.360;2022-08-19T12:54:47;8.55;;;6.40;;
39400;SDS011;54391;50.000;7.360;2022-08-19T12:57:15;9.77;;;6.65;;
39400;SDS011;54391;50.000;7.360;2022-08-19T12:59:42;9.23;;;6.80;;
39400;SDS011;54391;50.000;7.360;2022-08-19T13:02:11;7.50;;;6.50;;
39400;SDS011;54391;50.000;7.360;2022-08-19T13:04:38;7.97;;;5.90;;
39400;SDS011;54391;50.000;7.360;2022-08-19T13:07:06;9.52;;;6.82;;
39400;SDS011;54391;50.000;7.360;2022-08-19T13:09:35;8.80;;;6.40;;
39400;SDS011;54391;50.000;7.360;2022-08-19T13:12:03;9.90;;;6.78;;
39400;SDS011;54391;50.000;7.360;2022-08-19T13:14:33;8.30;;;5.85;;
39400;SDS011;54391;50.000;7.360;2022-08-19T13:17:00;8.63;;;6.65;;
39400;SDS011;54391;50.000;7.360;2022-08-19T13:19:30;12.38;;;6.80;;
39400;SDS011;54391;50.000;7.360;2022-08-19T13:21:58;8.48;;;6.85;;
39400;SDS011;54391;50.000;7.360;2022-08-19T13:24:25;6.93;;;5.88;;
39400;SDS011;54391;50.000;7.360;2022-08-19T13:26:52;7.53;;;6.70;;
39400;SDS011;54391;50.000;7.360;2022-08-19T13:29:20;8.77;;;6.93;;
39400;SDS011;54391;50.000;7.360;2022-08-19T13:32:05;9.30;;;7.17;;
39400;SDS011;54391;50.000;7.360;2022-08-19T13:34:51;10.02;;;7.70;;
39400;SDS011;54391;50.000;7.360;2022-08-19T13:37:18;11.70;;;8.43;;
39400;SDS011;54391;50.000;7.360;2022-08-19T13:40:07;10.00;;;8.27;;
39400;SDS011;54391;50.000;7.360;2022-08-19T13:42:37;13.57;;;7.40;;
39400;SDS011;54391;50.000;7.360;2022-08-19T13:45:05;10.68;;;7.90;;
39400;SDS011;54391;50.000;7.360;2022-08-19T13:47:33;11.65;;;7.57;;
39400;SDS011;54391;50.000;7.360;2022-08-19T13:50:03;10.43;;;8.52;;
39400;SDS011;54391;50.000;7.360;2022-08-19T13:52:31;11.57;;;8.05;;
39400;SDS011;54391;50.000;7.360;2022-08-19T13:54:59;13.75;;;8.30;;
39400;SDS011;54391;50.000;7.360;2022-08-19T13:57:26;10.27;;;8.10;;
39400;SDS011;54391;50.000;7.360;2022-08-19T13:59:53;12.32;;;8.18;;
39400;SDS011;54391;50.000;7.360;2022-08-19T14:02:21;11.00;;;7.18;;
39400;SDS011;54391;50.000;7.360;2022-08-19T14:04:48;9.75;;;7.95;;
39400;SDS011;54391;50.000;7.360;2022-08-19T14:07:17;9.93;;;7.90;;
39400;SDS011;54391;50.000;7.360;2022-08-19T14:09:45;8.50;;;7.43;;
39400;SDS011;54391;50.000;7.360;2022-08-19T14:12:12;13.38;;;7.18;;
39400;SDS011;54391;50.000;7.360;2022-08-19T14:14:39;11.18;;;6.50;;
39400;SDS011;54391;50.000;7.360;2022-08-19T14:17:07;11.70;;;7.28;;
39400;SDS011;54391;50.000;7.360;2022-08-19T14:19:34;10.43;;;6.88;;
39400;SDS011;54391;50.000;7.360;2022-08-19T14:22:02;9.95;;;6.47;;
39400;SDS011;54391;50.000;7.360;2022-08-19T14:24:32;10.73;;;5.80;;
39400;SDS011;54391;50.000;7.360;2022-08-19T14:26:59;11.05;;;5.97;;
39400;SDS011;54391;50.000;7.360;2022-08-19T14:29:28;14.40;;;6.40;;
39400;SDS011;54391;50.000;7.360;2022-08-19T14:31:55;10.18;;;6.22;;
39400;SDS011;54391;50.000;7.360;2022-08-19T14:34:24;8.27;;;6.50;;
39400;SDS011;54391;50.000;7.360;2022-08-19T14:36:51;10.15;;;6.43;;
39400;SDS011;54391;50.000;7.360;2022-08-19T14:39:18;8.50;;;6.35;;
39400;SDS011;54391;50.000;7.360;2022-08-19T14:41:47;12.10;;;6.70;;